createdAt,value
2018-07-08T00:00:40.453Z,2.13
2018-07-08T00:03:09.237Z,1.97
2018-07-08T00:05:37.984Z,2.00
2018-07-08T00:08:06.665Z,2.13
2018-07-08T00:10:39.573Z,1.80
2018-07-08T00:13:09.258Z,2.43
2018-07-08T00:15:38.190Z,2.17
2018-07-08T00:18:06.854Z,2.17
2018-07-08T00:20:35.328Z,1.77
2018-07-08T00:23:03.820Z,2.00
2018-07-08T00:25:32.812Z,2.03
2018-07-08T00:28:01.378Z,2.00
2018-07-08T00:30:30.056Z,1.70
2018-07-08T00:32:58.485Z,2.50
2018-07-08T00:35:27.183Z,1.90
2018-07-08T00:37:56.022Z,1.83
2018-07-08T00:40:25.525Z,2.20
2018-07-08T00:42:54.065Z,2.00
2018-07-08T00:45:22.502Z,1.93
2018-07-08T00:47:51.275Z,2.03
2018-07-08T00:50:19.721Z,1.97
2018-07-08T00:52:48.473Z,1.80
2018-07-08T00:55:17.021Z,1.83
2018-07-08T00:57:45.496Z,2.20
2018-07-08T01:00:38.513Z,2.10
2018-07-08T01:03:08.800Z,1.80
2018-07-08T01:05:37.339Z,2.20
2018-07-08T01:08:06.003Z,1.90
2018-07-08T01:10:34.425Z,2.00
2018-07-08T01:13:03.338Z,1.90
2018-07-08T01:15:31.973Z,2.10
2018-07-08T01:18:00.379Z,2.30
2018-07-08T01:20:29.116Z,1.90
2018-07-08T01:22:57.653Z,2.07
2018-07-08T01:25:37.261Z,2.10
2018-07-08T01:28:05.685Z,1.73
2018-07-08T01:30:34.103Z,2.03
2018-07-08T01:33:02.792Z,1.90
2018-07-08T01:35:31.484Z,2.07
2018-07-08T01:37:59.921Z,2.27
2018-07-08T01:40:28.783Z,2.03
2018-07-08T01:42:57.269Z,2.00
2018-07-08T01:45:25.819Z,2.00
2018-07-08T01:47:54.307Z,1.90
2018-07-08T01:50:22.952Z,2.30
2018-07-08T01:52:51.841Z,2.03
2018-07-08T01:55:20.809Z,1.73
2018-07-08T01:57:49.415Z,1.93
2018-07-08T02:00:17.848Z,1.80
2018-07-08T02:02:46.313Z,1.80
2018-07-08T02:05:14.729Z,2.00
2018-07-08T02:07:43.176Z,2.00
2018-07-08T02:10:11.742Z,2.10
2018-07-08T02:12:40.273Z,2.10
2018-07-08T02:15:08.699Z,2.10
2018-07-08T02:17:37.266Z,1.93
2018-07-08T02:20:06.251Z,3.20
2018-07-08T02:22:34.927Z,1.90
2018-07-08T02:25:03.593Z,2.03
2018-07-08T02:27:32.213Z,1.93
2018-07-08T02:30:01.187Z,1.93
2018-07-08T02:32:29.756Z,1.97
2018-07-08T02:34:58.240Z,2.10
2018-07-08T02:37:26.961Z,2.10
2018-07-08T02:39:55.390Z,1.83
2018-07-08T02:42:23.901Z,1.80
2018-07-08T02:44:53.113Z,2.20
2018-07-08T02:47:21.804Z,2.40
2018-07-08T02:49:50.596Z,2.13
2018-07-08T02:52:20.111Z,1.93
2018-07-08T02:54:48.977Z,2.07
2018-07-08T02:57:17.750Z,2.33
2018-07-08T02:59:46.650Z,1.93
2018-07-08T03:02:15.034Z,1.87
2018-07-08T03:04:43.924Z,2.27
2018-07-08T03:07:12.509Z,1.90
2018-07-08T03:09:41.431Z,2.20
2018-07-08T03:12:09.970Z,1.87
2018-07-08T03:14:38.557Z,2.00
2018-07-08T03:17:07.247Z,2.10
2018-07-08T03:19:35.693Z,1.77
2018-07-08T03:22:04.505Z,1.90
2018-07-08T03:24:32.897Z,1.80
2018-07-08T03:27:01.845Z,1.90
2018-07-08T03:29:30.272Z,1.60
2018-07-08T03:31:58.979Z,1.73
2018-07-08T03:34:27.473Z,1.67
2018-07-08T03:36:55.670Z,1.70
2018-07-08T03:39:24.225Z,1.53
2018-07-08T03:41:53.034Z,1.70
2018-07-08T03:44:21.945Z,1.60
2018-07-08T03:46:50.498Z,1.70
2018-07-08T03:49:18.970Z,1.70
2018-07-08T03:51:47.425Z,1.80
2018-07-08T03:54:25.759Z,2.37
2018-07-08T03:56:54.543Z,1.60
2018-07-08T03:59:23.331Z,1.90
2018-07-08T04:01:51.931Z,1.60
2018-07-08T04:04:20.700Z,1.70
2018-07-08T04:06:48.865Z,1.50
2018-07-08T04:09:18.550Z,1.70
2018-07-08T04:11:47.562Z,1.40
2018-07-08T04:14:16.256Z,1.80
2018-07-08T04:16:45.257Z,1.70
2018-07-08T04:19:13.970Z,1.67
2018-07-08T04:21:42.759Z,1.80
2018-07-08T04:24:11.529Z,1.73
2018-07-08T04:26:39.952Z,1.70
2018-07-08T04:29:08.381Z,1.60
2018-07-08T04:31:36.919Z,1.40
2018-07-08T04:34:06.166Z,1.23
2018-07-08T04:36:34.956Z,2.00
2018-07-08T04:39:04.798Z,1.73
2018-07-08T04:41:33.222Z,2.00
2018-07-08T04:44:01.697Z,1.40
2018-07-08T04:46:30.127Z,1.70
2018-07-08T04:48:59.023Z,1.67
2018-07-08T04:51:27.588Z,1.60
2018-07-08T04:53:56.046Z,1.63
2018-07-08T04:56:24.863Z,1.93
2018-07-08T04:58:53.617Z,1.93
2018-07-08T05:01:22.327Z,1.50
2018-07-08T05:03:51.089Z,2.03
2018-07-08T05:06:19.497Z,1.43
2018-07-08T05:08:47.873Z,1.57
2018-07-08T05:11:16.302Z,1.50
2018-07-08T05:13:44.918Z,1.40
2018-07-08T05:16:13.381Z,1.30
2018-07-08T05:18:41.844Z,1.23
2018-07-08T05:21:10.385Z,1.50
2018-07-08T05:23:38.889Z,1.33
2018-07-08T05:26:07.339Z,1.40
2018-07-08T05:28:36.203Z,1.57
2018-07-08T05:31:04.662Z,1.43
2018-07-08T05:33:33.277Z,1.20
2018-07-08T05:36:02.010Z,1.30
2018-07-08T05:38:30.416Z,1.57
2018-07-08T05:40:58.841Z,1.60
2018-07-08T05:43:27.604Z,1.53
2018-07-08T05:45:56.023Z,1.50
2018-07-08T05:48:24.802Z,1.30
2018-07-08T05:50:53.478Z,1.20
2018-07-08T05:53:22.469Z,1.47
2018-07-08T05:55:51.550Z,1.80
2018-07-08T05:58:19.956Z,1.40
2018-07-08T06:00:48.359Z,1.40
2018-07-08T06:03:17.629Z,1.80
2018-07-08T06:05:46.034Z,1.30
2018-07-08T06:08:14.593Z,1.30
2018-07-08T06:10:42.811Z,1.50
2018-07-08T06:13:12.151Z,1.60
2018-07-08T06:15:40.956Z,1.47
2018-07-08T06:18:09.568Z,1.50
2018-07-08T06:20:38.348Z,1.50
2018-07-08T06:23:07.166Z,1.40
2018-07-08T06:25:35.681Z,2.03
2018-07-08T06:28:06.094Z,1.33
2018-07-08T06:30:34.889Z,1.33
2018-07-08T06:33:04.554Z,1.77
2018-07-08T06:35:32.963Z,1.20
2018-07-08T06:38:01.678Z,1.70
2018-07-08T06:40:30.175Z,2.87
2018-07-08T06:42:58.854Z,2.03
2018-07-08T06:45:27.338Z,1.67
2018-07-08T06:47:56.036Z,1.50
2018-07-08T06:50:24.167Z,1.80
2018-07-08T06:52:52.851Z,1.70
2018-07-08T06:55:21.381Z,1.80
2018-07-08T06:57:49.953Z,1.97
2018-07-08T07:00:18.497Z,1.80
2018-07-08T07:02:46.904Z,1.63
2018-07-08T07:05:15.420Z,1.40
2018-07-08T07:07:43.884Z,1.40
2018-07-08T07:10:12.435Z,1.50
2018-07-08T07:12:41.274Z,1.70
2018-07-08T07:15:09.862Z,1.83
2018-07-08T07:17:38.412Z,1.50
2018-07-08T07:20:07.403Z,1.40
2018-07-08T07:22:35.965Z,1.37
2018-07-08T07:25:04.914Z,1.63
2018-07-08T07:27:33.574Z,1.80
2018-07-08T07:30:01.992Z,1.60
2018-07-08T07:32:31.240Z,1.63
2018-07-08T07:34:59.848Z,1.77
2018-07-08T07:37:28.497Z,1.50
2018-07-08T07:39:57.049Z,1.70
2018-07-08T07:42:25.745Z,1.10
2018-07-08T07:44:55.150Z,1.77
2018-07-08T07:47:23.656Z,1.70
2018-07-08T07:49:52.417Z,1.43
2018-07-08T07:52:21.078Z,1.80
2018-07-08T07:54:49.537Z,1.40
2018-07-08T07:57:18.128Z,1.27
2018-07-08T07:59:46.545Z,1.43
2018-07-08T08:02:15.521Z,1.23
2018-07-08T08:04:44.081Z,2.10
2018-07-08T08:07:12.566Z,1.30
2018-07-08T08:09:41.220Z,1.40
2018-07-08T08:12:09.785Z,1.40
2018-07-08T08:14:38.367Z,1.23
2018-07-08T08:17:07.196Z,1.40
2018-07-08T08:19:35.656Z,1.10
2018-07-08T08:22:04.464Z,1.10
2018-07-08T08:24:32.980Z,1.33
2018-07-08T08:27:01.550Z,1.20
2018-07-08T08:29:30.062Z,1.30
2018-07-08T08:31:58.533Z,1.87
2018-07-08T08:35:02.190Z,1.43
2018-07-08T08:37:31.918Z,1.40
2018-07-08T08:40:00.391Z,1.50
2018-07-08T08:42:28.810Z,1.63
2018-07-08T08:44:58.393Z,1.87
2018-07-08T08:47:28.206Z,1.73
2018-07-08T08:49:57.085Z,1.70
2018-07-08T08:52:26.480Z,1.40
2018-07-08T08:54:55.810Z,1.50
2018-07-08T08:57:24.224Z,1.37
2018-07-08T08:59:52.667Z,1.30
2018-07-08T09:02:21.134Z,1.33
2018-07-08T09:04:50.909Z,1.40
2018-07-08T09:07:20.367Z,2.17
2018-07-08T09:09:49.223Z,1.33
2018-07-08T09:12:18.967Z,1.43
2018-07-08T09:14:47.616Z,1.30
2018-07-08T09:17:16.100Z,1.70
2018-07-08T09:19:44.889Z,1.40
2018-07-08T09:22:13.691Z,1.60
2018-07-08T09:24:42.238Z,1.70
2018-07-08T09:27:10.957Z,1.60
2018-07-08T09:29:39.400Z,1.53
2018-07-08T09:32:08.190Z,2.13
2018-07-08T09:34:37.809Z,1.73
2018-07-08T09:37:06.676Z,1.63
2018-07-08T09:39:35.856Z,1.63
2018-07-08T09:42:04.441Z,1.47
2018-07-08T09:44:33.826Z,1.70
2018-07-08T09:47:02.506Z,1.27
2018-07-08T09:49:31.168Z,1.47
2018-07-08T09:51:59.782Z,1.63
2018-07-08T09:54:28.225Z,2.20
2018-07-08T09:56:57.050Z,1.53
2018-07-08T09:59:25.601Z,1.77
2018-07-08T10:01:54.517Z,2.00
2018-07-08T10:04:24.336Z,1.70
2018-07-08T10:06:53.447Z,1.60
2018-07-08T10:09:23.236Z,1.83
2018-07-08T10:11:51.838Z,1.70
2018-07-08T10:14:22.003Z,1.63
2018-07-08T10:16:50.461Z,2.00
2018-07-08T10:19:19.945Z,2.00
2018-07-08T10:21:48.483Z,2.50
2018-07-08T10:24:17.076Z,2.00
2018-07-08T10:26:50.502Z,1.77
2018-07-08T10:29:19.376Z,1.50
2018-07-08T10:31:50.221Z,1.87
2018-07-08T10:34:18.926Z,2.37
2018-07-08T10:36:48.063Z,1.60
2018-07-08T10:39:17.527Z,1.80
2018-07-08T10:41:45.982Z,1.70
2018-07-08T10:44:14.819Z,1.90
2018-07-08T10:46:43.919Z,1.83
2018-07-08T10:49:12.850Z,1.90
2018-07-08T10:51:41.505Z,1.70
2018-07-08T10:54:09.970Z,1.90
2018-07-08T10:56:38.838Z,1.87
2018-07-08T10:59:08.328Z,2.03
2018-07-08T11:01:36.703Z,1.67
2018-07-08T11:04:05.534Z,1.70
2018-07-08T11:06:34.066Z,1.70
2018-07-08T11:09:02.525Z,1.57
2018-07-08T11:11:31.356Z,2.00
2018-07-08T11:13:59.851Z,1.90
2018-07-08T11:16:28.469Z,1.83
2018-07-08T11:18:56.915Z,1.77
2018-07-08T11:21:25.636Z,1.83
2018-07-08T11:23:54.240Z,1.60
2018-07-08T11:26:22.725Z,1.70
2018-07-08T11:28:51.464Z,1.90
2018-07-08T11:31:19.966Z,1.57
2018-07-08T11:33:48.577Z,2.00
2018-07-08T11:36:17.166Z,1.63
2018-07-08T11:38:45.640Z,1.30
2018-07-08T11:41:14.426Z,1.60
2018-07-08T11:43:43.414Z,1.50
2018-07-08T11:46:11.939Z,1.83
2018-07-08T11:48:46.881Z,1.97
2018-07-08T11:51:15.720Z,1.87
2018-07-08T11:53:44.465Z,2.23
2018-07-08T11:56:13.028Z,2.80
2018-07-08T11:58:41.917Z,2.50
2018-07-08T12:01:10.637Z,2.03
2018-07-08T12:03:39.398Z,2.20
2018-07-08T12:06:08.021Z,1.83
2018-07-08T12:08:36.513Z,2.07
2018-07-08T12:11:05.289Z,1.67
2018-07-08T12:13:34.856Z,1.60
2018-07-08T12:16:03.537Z,1.20
2018-07-08T12:18:32.865Z,1.50
2018-07-08T12:21:02.067Z,1.40
2018-07-08T12:23:31.756Z,1.50
2018-07-08T12:25:59.875Z,1.60
2018-07-08T12:28:28.493Z,1.40
2018-07-08T12:30:57.533Z,1.30
2018-07-08T12:33:26.732Z,1.20
2018-07-08T12:35:55.286Z,1.03
2018-07-08T12:38:23.714Z,1.20
2018-07-08T12:40:52.209Z,1.33
2018-07-08T12:43:20.933Z,1.23
2018-07-08T12:45:50.153Z,1.37
2018-07-08T12:48:18.566Z,1.10
2018-07-08T12:50:47.514Z,1.30
2018-07-08T12:53:16.510Z,1.30
2018-07-08T12:55:45.286Z,1.40
2018-07-08T12:58:13.962Z,1.17
2018-07-08T13:00:42.542Z,1.20
2018-07-08T13:03:11.023Z,1.00
2018-07-08T13:05:39.515Z,1.10
2018-07-08T13:08:08.309Z,0.97
2018-07-08T13:10:36.737Z,1.00
2018-07-08T13:13:05.609Z,1.10
2018-07-08T13:15:34.613Z,1.10
2018-07-08T13:18:03.218Z,1.10
2018-07-08T13:20:31.690Z,1.00
2018-07-08T13:23:00.069Z,1.37
2018-07-08T13:25:28.588Z,1.17
2018-07-08T13:27:57.057Z,1.40
2018-07-08T13:30:25.864Z,1.20
2018-07-08T13:32:54.524Z,1.47
2018-07-08T13:35:23.030Z,1.63
2018-07-08T13:37:51.511Z,2.67
2018-07-08T13:40:20.136Z,1.37
2018-07-08T13:42:49.342Z,1.43
2018-07-08T13:45:18.517Z,1.30
2018-07-08T13:47:47.089Z,1.47
2018-07-08T13:50:15.581Z,1.10
2018-07-08T13:52:44.002Z,1.63
2018-07-08T13:55:12.537Z,1.20
2018-07-08T13:57:41.418Z,1.17
2018-07-08T14:00:10.158Z,0.90
2018-07-08T14:02:38.590Z,2.03
2018-07-08T14:05:07.932Z,1.40
2018-07-08T14:07:36.445Z,1.00
2018-07-08T14:10:04.790Z,0.93
2018-07-08T14:12:33.247Z,1.33
2018-07-08T14:15:01.792Z,1.00
2018-07-08T14:17:30.238Z,1.30
2018-07-08T14:19:58.956Z,1.23
2018-07-08T14:22:27.695Z,1.40
2018-07-08T14:24:56.265Z,1.10
2018-07-08T14:27:24.672Z,1.40
2018-07-08T14:29:53.194Z,1.30
2018-07-08T14:32:21.560Z,1.43
2018-07-08T14:34:50.506Z,1.60
2018-07-08T14:37:19.217Z,1.40
2018-07-08T14:39:47.615Z,1.30
2018-07-08T14:42:16.148Z,1.30
2018-07-08T14:44:44.781Z,1.20
2018-07-08T14:47:13.192Z,1.23
2018-07-08T14:49:41.780Z,1.50
2018-07-08T14:52:10.169Z,1.20
2018-07-08T14:54:39.117Z,1.00
2018-07-08T14:57:07.541Z,1.47
2018-07-08T14:59:36.098Z,1.23
2018-07-08T15:02:04.592Z,1.27
2018-07-08T15:04:33.497Z,1.47
2018-07-08T15:07:02.124Z,1.50
2018-07-08T15:09:30.580Z,1.40
2018-07-08T15:11:59.339Z,1.20
2018-07-08T15:14:34.698Z,1.40
2018-07-08T15:17:03.857Z,1.50
2018-07-08T15:19:32.479Z,1.47
2018-07-08T15:22:07.384Z,2.20
2018-07-08T15:24:50.935Z,1.50
2018-07-08T15:27:19.301Z,1.50
2018-07-08T15:29:48.050Z,2.10
2018-07-08T15:32:16.706Z,1.97
2018-07-08T15:34:45.650Z,1.40
2018-07-08T15:37:14.787Z,1.77
2018-07-08T15:39:43.399Z,1.60
2018-07-08T15:42:12.177Z,1.40
2018-07-08T15:44:40.660Z,1.60
2018-07-08T15:47:09.471Z,1.40
2018-07-08T15:49:37.962Z,1.13
2018-07-08T15:52:06.398Z,1.10
2018-07-08T15:54:35.768Z,1.20
2018-07-08T15:57:04.574Z,1.23
2018-07-08T15:59:33.771Z,1.20
2018-07-08T16:02:02.233Z,1.23
2018-07-08T16:04:30.918Z,1.20
2018-07-08T16:06:59.905Z,1.20
2018-07-08T16:09:28.832Z,1.30
2018-07-08T16:11:57.305Z,1.10
2018-07-08T16:14:26.181Z,1.33
2018-07-08T16:16:54.887Z,1.30
2018-07-08T16:19:23.641Z,1.27
2018-07-08T16:21:52.821Z,1.43
2018-07-08T16:24:21.569Z,1.50
2018-07-08T16:26:50.392Z,1.30
2018-07-08T16:29:19.930Z,1.63
2018-07-08T16:31:48.717Z,1.40
2018-07-08T16:34:17.377Z,1.70
2018-07-08T16:36:46.304Z,1.60
2018-07-08T16:39:15.030Z,1.50
2018-07-08T16:41:43.726Z,1.47
2018-07-08T16:44:12.298Z,1.20
2018-07-08T16:46:41.082Z,1.30
2018-07-08T16:49:09.621Z,1.30
2018-07-08T16:51:38.247Z,1.40
2018-07-08T16:54:07.466Z,1.30
2018-07-08T16:56:36.328Z,1.50
2018-07-08T16:59:04.998Z,1.60
2018-07-08T17:01:33.564Z,1.30
2018-07-08T17:04:02.066Z,1.37
2018-07-08T17:06:30.522Z,1.30
2018-07-08T17:08:59.421Z,1.23
2018-07-08T17:11:27.965Z,1.40
2018-07-08T17:13:56.975Z,1.47
2018-07-08T17:16:25.985Z,1.50
2018-07-08T17:18:54.479Z,1.50
2018-07-08T17:21:23.051Z,1.57
2018-07-08T17:23:52.799Z,1.50
2018-07-08T17:26:22.730Z,1.60
2018-07-08T17:28:51.217Z,2.40
2018-07-08T17:31:20.446Z,1.37
2018-07-08T17:33:57.941Z,2.07
2018-07-08T17:36:34.193Z,2.80
2018-07-08T17:47:01.769Z,2.27
2018-07-08T17:49:30.491Z,2.37
2018-07-08T17:51:59.140Z,2.90
2018-07-08T17:54:27.769Z,2.43
2018-07-08T17:56:56.608Z,2.40
2018-07-08T17:59:25.497Z,2.30
2018-07-08T18:01:54.433Z,2.10
2018-07-08T18:04:22.873Z,2.10
2018-07-08T18:06:51.421Z,2.00
2018-07-08T18:09:19.954Z,2.03
2018-07-08T18:11:48.609Z,1.80
2018-07-08T18:14:17.401Z,1.80
2018-07-08T18:16:45.836Z,1.40
2018-07-08T18:19:14.263Z,1.50
2018-07-08T18:21:43.054Z,1.47
2018-07-08T18:24:11.498Z,1.30
2018-07-08T18:26:40.089Z,1.50
2018-07-08T18:29:08.646Z,1.43
2018-07-08T18:31:37.192Z,1.20
2018-07-08T18:34:05.440Z,1.30
2018-07-08T18:36:33.964Z,1.40
2018-07-08T18:39:02.542Z,1.50
2018-07-08T18:41:31.105Z,1.87
2018-07-08T18:43:59.672Z,1.60
2018-07-08T18:46:28.168Z,1.40
2018-07-08T18:48:56.639Z,1.40
2018-07-08T18:51:25.446Z,1.40
2018-07-08T18:53:53.920Z,1.70
2018-07-08T18:56:22.194Z,1.37
2018-07-08T18:58:50.576Z,1.30
2018-07-08T19:01:18.939Z,1.30
2018-07-08T19:03:47.616Z,1.60
2018-07-08T19:06:16.057Z,1.20
2018-07-08T19:08:44.444Z,1.37
2018-07-08T19:11:13.038Z,1.57
2018-07-08T19:13:41.586Z,1.43
2018-07-08T19:16:10.341Z,1.50
2018-07-08T19:18:38.938Z,1.33
2018-07-08T19:21:07.775Z,1.40
2018-07-08T19:23:36.770Z,1.53
2018-07-08T19:26:08.172Z,1.20
2018-07-08T19:28:41.981Z,1.77
2018-07-08T19:31:12.096Z,1.70
2018-07-08T19:33:41.484Z,1.90
2018-07-08T19:36:10.768Z,1.90
2018-07-08T19:38:40.310Z,2.00
2018-07-08T19:41:10.064Z,1.90
2018-07-08T19:43:41.599Z,1.83
2018-07-08T19:46:11.202Z,2.07
2018-07-08T19:48:44.544Z,2.33
2018-07-08T19:51:14.557Z,2.60
2018-07-08T19:53:44.362Z,2.87
2018-07-08T19:56:13.545Z,3.03
2018-07-08T19:58:52.605Z,2.33
2018-07-08T20:01:24.363Z,2.40
2018-07-08T20:03:53.785Z,2.10
2018-07-08T20:06:23.116Z,2.27
2018-07-08T20:08:52.189Z,2.10
2018-07-08T20:11:24.399Z,1.83
2018-07-08T20:13:57.035Z,1.80
2018-07-08T20:16:26.643Z,2.63
2018-07-08T20:18:55.966Z,2.60
2018-07-08T20:21:25.971Z,2.67
2018-07-08T20:23:55.630Z,2.23
2018-07-08T20:26:24.727Z,2.20
2018-07-08T20:28:54.228Z,2.73
2018-07-08T20:31:23.931Z,2.73
2018-07-08T20:33:53.333Z,2.90
2018-07-08T20:36:21.771Z,2.63
2018-07-08T20:38:50.629Z,2.27
2018-07-08T20:41:19.327Z,2.80
2018-07-08T20:43:48.272Z,5.47
2018-07-08T20:46:16.985Z,4.77
2018-07-08T20:48:45.578Z,6.33
2018-07-08T20:51:14.488Z,6.80
2018-07-08T20:53:43.057Z,6.83
2018-07-08T20:56:11.815Z,6.80
2018-07-08T20:58:40.594Z,7.67
2018-07-08T21:01:09.599Z,7.50
2018-07-08T21:03:39.311Z,8.10
2018-07-08T21:06:10.084Z,8.57
2018-07-08T21:08:40.617Z,8.13
2018-07-08T21:11:09.941Z,7.97
2018-07-08T21:13:41.812Z,8.33
2018-07-08T21:16:25.749Z,7.80
2018-07-08T21:18:58.137Z,8.40
2018-07-08T21:21:28.253Z,8.00
2018-07-08T21:23:58.530Z,8.63
2018-07-08T21:26:27.363Z,8.43
2018-07-08T21:28:57.566Z,7.73
2018-07-08T21:31:30.160Z,8.33
2018-07-08T21:33:59.978Z,8.27
2018-07-08T21:36:29.523Z,7.50
2018-07-08T21:38:58.464Z,7.90
2018-07-08T21:41:28.114Z,7.33
2018-07-08T21:43:58.545Z,7.47
2018-07-08T21:46:27.838Z,8.80
2018-07-08T21:48:56.270Z,8.03
2018-07-08T21:51:25.002Z,7.57
2018-07-08T21:53:53.814Z,8.27
2018-07-08T21:56:22.637Z,7.30
2018-07-08T21:58:51.505Z,7.30
2018-07-08T22:01:21.030Z,8.53
2018-07-08T22:03:51.163Z,9.10
2018-07-08T22:06:20.466Z,8.57
2018-07-08T22:08:49.415Z,8.97
2018-07-08T22:11:18.029Z,8.73
2018-07-08T22:13:46.471Z,9.00
2018-07-08T22:16:15.166Z,9.33
2018-07-08T22:18:43.570Z,9.03
2018-07-08T22:21:12.284Z,8.50
2018-07-08T22:23:40.881Z,9.33
2018-07-08T22:26:09.724Z,9.03
2018-07-08T22:28:38.161Z,9.37
2018-07-08T22:31:07.017Z,9.33
2018-07-08T22:33:35.637Z,8.70
2018-07-08T22:36:04.232Z,9.27
2018-07-08T22:38:32.954Z,8.90
2018-07-08T22:41:01.644Z,8.33
2018-07-08T22:43:30.224Z,9.10
2018-07-08T22:45:58.797Z,8.73
2018-07-08T22:48:27.531Z,7.97
2018-07-08T22:50:56.149Z,8.53
2018-07-08T22:53:24.990Z,8.40
2018-07-08T22:55:54.772Z,8.57
2018-07-08T22:58:23.489Z,8.43
2018-07-08T23:01:03.371Z,7.90
2018-07-08T23:04:04.785Z,8.27
2018-07-08T23:06:33.176Z,7.97
2018-07-08T23:09:03.176Z,9.30
2018-07-08T23:11:32.318Z,9.03
2018-07-08T23:14:00.901Z,9.20
2018-07-08T23:16:30.644Z,10.07
2018-07-08T23:18:59.349Z,9.33
2018-07-08T23:21:27.980Z,8.73
2018-07-08T23:23:56.501Z,9.27
2018-07-08T23:26:25.477Z,10.03
2018-07-08T23:28:54.328Z,9.50
2018-07-08T23:31:23.785Z,10.27
2018-07-08T23:33:52.558Z,9.50
2018-07-08T23:36:21.001Z,9.17
2018-07-08T23:38:49.626Z,9.20
2018-07-08T23:41:18.460Z,9.37
2018-07-08T23:43:47.132Z,9.17
2018-07-08T23:46:15.529Z,9.37
2018-07-08T23:48:44.018Z,9.20
2018-07-08T23:51:12.685Z,9.87
2018-07-08T23:53:41.407Z,9.00
2018-07-08T23:56:10.053Z,8.93
2018-07-08T23:58:38.475Z,9.00
